createdAt,value
2019-03-06T00:03:28.146Z,10.7
2019-03-06T00:13:27.354Z,10.6
2019-03-06T00:23:26.563Z,10.4
2019-03-06T00:33:25.776Z,10.4
2019-03-06T00:43:24.983Z,10.4
2019-03-06T00:53:24.194Z,10.3
2019-03-06T01:03:23.405Z,10
2019-03-06T01:13:22.611Z,10.1
2019-03-06T01:23:21.820Z,9.9
2019-03-06T01:33:21.029Z,9.8
2019-03-06T01:43:20.239Z,9.5
2019-03-06T01:53:19.450Z,9.4
2019-03-06T02:03:18.657Z,9.4
2019-03-06T02:13:17.867Z,9.6
2019-03-06T02:23:17.075Z,9.6
2019-03-06T02:33:16.284Z,9.5
2019-03-06T02:43:15.495Z,9.3
2019-03-06T02:53:14.752Z,9.1
2019-03-06T03:03:13.910Z,9.1
2019-03-06T03:13:13.123Z,9.1
2019-03-06T03:23:12.330Z,9.2
2019-03-06T03:33:11.540Z,8.9
2019-03-06T03:43:10.748Z,9.2
2019-03-06T03:53:09.959Z,9.3
2019-03-06T04:03:09.163Z,9.1
2019-03-06T04:13:08.370Z,9
2019-03-06T04:23:07.578Z,8.9
2019-03-06T04:33:06.787Z,8.9
2019-03-06T04:43:05.998Z,8.9
2019-03-06T04:53:05.208Z,8.4
2019-03-06T05:03:04.417Z,8.3
2019-03-06T05:13:03.626Z,8.3
2019-03-06T05:23:02.836Z,8.3
2019-03-06T05:33:02.048Z,8.3
2019-03-06T05:43:01.259Z,8.3
2019-03-06T05:53:00.470Z,8.5
2019-03-06T06:02:59.683Z,8.8
2019-03-06T06:12:58.892Z,8.6
2019-03-06T06:22:58.105Z,8.5
2019-03-06T06:32:57.318Z,8.7
2019-03-06T06:42:56.529Z,8.8
2019-03-06T06:52:55.740Z,9
2019-03-06T07:02:54.954Z,9.5
2019-03-06T07:12:54.166Z,10.1
2019-03-06T07:22:53.382Z,11.5
2019-03-06T07:32:52.595Z,13.1
2019-03-06T07:42:51.809Z,12.4
2019-03-06T07:52:51.021Z,11.9
2019-03-06T08:02:50.231Z,13.3
2019-03-06T08:12:49.444Z,13.9
2019-03-06T08:22:48.658Z,15.6
2019-03-06T08:32:47.865Z,15.9
2019-03-06T08:42:47.076Z,15.3
2019-03-06T08:52:46.287Z,15.8
2019-03-06T09:02:45.502Z,16.3
2019-03-06T09:12:44.710Z,17.1
2019-03-06T09:22:43.922Z,17.5
2019-03-06T09:32:43.146Z,16.9
2019-03-06T09:42:42.342Z,16.6
2019-03-06T09:52:42.321Z,16.7
2019-03-06T10:02:41.482Z,17.9
2019-03-06T10:12:47.192Z,18.6
2019-03-06T10:22:39.909Z,18.1
2019-03-06T10:32:39.114Z,17.4
2019-03-06T10:42:38.326Z,16.8
2019-03-06T10:52:37.534Z,17.1
2019-03-06T11:02:36.747Z,17.6
2019-03-06T11:12:35.954Z,17.3
2019-03-06T11:22:35.164Z,17.3
2019-03-06T11:32:34.374Z,17.7
2019-03-06T11:42:33.584Z,18.6
2019-03-06T11:52:34.640Z,18.5
2019-03-06T12:02:32.010Z,18.8
2019-03-06T12:12:31.263Z,18.3
2019-03-06T12:22:30.422Z,18.4
2019-03-06T12:32:29.633Z,18.2
2019-03-06T12:42:28.845Z,18.1
2019-03-06T12:52:28.052Z,17.8
2019-03-06T13:02:27.262Z,17.3
2019-03-06T13:12:26.826Z,16.9
2019-03-06T13:22:25.779Z,16.7
2019-03-06T13:32:24.889Z,16.5
2019-03-06T13:42:24.097Z,16.2
2019-03-06T13:52:23.310Z,16
2019-03-06T14:02:22.515Z,15.9
2019-03-06T14:12:21.724Z,15.8
2019-03-06T14:22:20.932Z,15.5
2019-03-06T14:32:20.143Z,15.3
2019-03-06T14:42:19.349Z,15.1
2019-03-06T14:52:18.567Z,14.9
2019-03-06T15:02:17.767Z,14.8
2019-03-06T15:12:16.975Z,14.7
2019-03-06T15:22:16.185Z,14.6
2019-03-06T15:32:15.393Z,14.4
2019-03-06T15:42:14.601Z,14.3
2019-03-06T15:52:13.809Z,14.1
2019-03-06T16:02:13.017Z,13.8
2019-03-06T16:12:12.464Z,13.6
2019-03-06T16:22:11.444Z,13.4
2019-03-06T16:32:10.647Z,13.1
2019-03-06T16:42:09.864Z,12.8
2019-03-06T16:52:09.067Z,13.1
2019-03-06T17:02:08.281Z,13
2019-03-06T17:12:07.488Z,13
2019-03-06T17:22:06.702Z,13
2019-03-06T17:32:05.905Z,12.9
2019-03-06T17:42:05.116Z,12.9
2019-03-06T17:52:04.327Z,12.8
2019-03-06T18:02:03.538Z,12.8
2019-03-06T18:12:02.746Z,12.6
2019-03-06T18:22:01.957Z,12.5
2019-03-06T18:32:01.204Z,12.4
2019-03-06T18:42:00.376Z,12.4
2019-03-06T18:51:59.588Z,12.3
2019-03-06T19:01:58.828Z,12.2
2019-03-06T19:11:58.020Z,12.1
2019-03-06T19:21:57.238Z,12.1
2019-03-06T19:31:56.454Z,12
2019-03-06T19:41:55.665Z,11.9
2019-03-06T19:51:54.880Z,11.9
2019-03-06T20:01:54.097Z,11.8
2019-03-06T20:11:53.308Z,11.4
2019-03-06T20:21:52.552Z,11.1
2019-03-06T20:31:51.736Z,11.1
2019-03-06T20:41:50.949Z,11.2
2019-03-06T20:51:50.164Z,11.3
2019-03-06T21:01:49.393Z,11.3
2019-03-06T21:11:48.595Z,11.4
2019-03-06T21:21:47.812Z,11.4
2019-03-06T21:31:47.024Z,11.4
2019-03-06T21:41:46.239Z,11.3
2019-03-06T21:51:45.449Z,11.3
2019-03-06T22:01:44.664Z,11.2
2019-03-06T22:11:43.901Z,11.1
2019-03-06T22:21:43.103Z,11.1
2019-03-06T22:31:42.302Z,10.9
2019-03-06T22:41:41.517Z,10.8
2019-03-06T22:51:40.730Z,10.7
2019-03-06T23:01:39.942Z,10.6
2019-03-06T23:11:39.154Z,10.4
2019-03-06T23:21:38.368Z,10.3
2019-03-06T23:31:37.579Z,10.1
2019-03-06T23:41:36.790Z,9.9
2019-03-06T23:51:36.003Z,9.9
